sensor_id;sensor_type;location;lat;lon;timestamp;P1;durP1;ratioP1;P2;durP2;ratioP2
44810;SDS011;30526;52.184;4.476;2023-08-21T00:02:03;5.65;;;2.50;;
44810;SDS011;30526;52.184;4.476;2023-08-21T00:04:29;6.13;;;2.90;;
44810;SDS011;30526;52.184;4.476;2023-08-21T00:06:55;3.15;;;2.05;;
44810;SDS011;30526;52.184;4.476;2023-08-21T00:09:21;8.38;;;2.47;;
44810;SDS011;30526;52.184;4.476;2023-08-21T00:11:48;7.32;;;2.55;;
44810;SDS011;30526;52.184;4.476;2023-08-21T00:14:14;6.80;;;2.42;;
44810;SDS011;30526;52.184;4.476;2023-08-21T00:16:40;6.28;;;2.30;;
44810;SDS011;30526;52.184;4.476;2023-08-21T00:19:05;6.70;;;2.20;;
44810;SDS011;30526;52.184;4.476;2023-08-21T00:21:31;5.15;;;2.63;;
44810;SDS011;30526;52.184;4.476;2023-08-21T00:23:57;6.45;;;2.38;;
44810;SDS011;30526;52.184;4.476;2023-08-21T00:26:23;10.48;;;4.47;;
44810;SDS011;30526;52.184;4.476;2023-08-21T00:28:50;8.80;;;2.42;;
44810;SDS011;30526;52.184;4.476;2023-08-21T00:31:16;3.58;;;2.40;;
44810;SDS011;30526;52.184;4.476;2023-08-21T00:33:41;7.43;;;2.50;;
44810;SDS011;30526;52.184;4.476;2023-08-21T00:36:07;7.97;;;2.20;;
44810;SDS011;30526;52.184;4.476;2023-08-21T00:38:34;6.73;;;2.50;;
44810;SDS011;30526;52.184;4.476;2023-08-21T00:41:00;5.47;;;2.47;;
44810;SDS011;30526;52.184;4.476;2023-08-21T00:43:26;4.53;;;1.98;;
44810;SDS011;30526;52.184;4.476;2023-08-21T00:45:52;6.07;;;1.80;;
44810;SDS011;30526;52.184;4.476;2023-08-21T00:48:18;11.90;;;3.25;;
44810;SDS011;30526;52.184;4.476;2023-08-21T00:50:45;9.17;;;2.20;;
44810;SDS011;30526;52.184;4.476;2023-08-21T00:53:11;7.65;;;1.90;;
44810;SDS011;30526;52.184;4.476;2023-08-21T00:55:37;8.07;;;2.20;;
44810;SDS011;30526;52.184;4.476;2023-08-21T00:58:03;5.43;;;2.05;;
44810;SDS011;30526;52.184;4.476;2023-08-21T01:00:30;4.15;;;1.88;;
44810;SDS011;30526;52.184;4.476;2023-08-21T01:02:56;11.48;;;2.22;;
44810;SDS011;30526;52.184;4.476;2023-08-21T01:05:22;2.97;;;1.67;;
44810;SDS011;30526;52.184;4.476;2023-08-21T01:08:02;5.18;;;2.10;;
44810;SDS011;30526;52.184;4.476;2023-08-21T01:13:19;7.72;;;1.92;;
44810;SDS011;30526;52.184;4.476;2023-08-21T01:15:45;7.13;;;2.50;;
44810;SDS011;30526;52.184;4.476;2023-08-21T01:18:11;10.75;;;2.15;;
44810;SDS011;30526;52.184;4.476;2023-08-21T01:20:37;7.60;;;2.00;;
44810;SDS011;30526;52.184;4.476;2023-08-21T01:23:04;9.65;;;2.08;;
44810;SDS011;30526;52.184;4.476;2023-08-21T01:25:31;7.50;;;1.80;;
44810;SDS011;30526;52.184;4.476;2023-08-21T01:27:57;6.30;;;2.10;;
44810;SDS011;30526;52.184;4.476;2023-08-21T01:30:23;5.63;;;2.60;;
44810;SDS011;30526;52.184;4.476;2023-08-21T01:32:59;6.60;;;2.85;;
44810;SDS011;30526;52.184;4.476;2023-08-21T01:37:52;4.30;;;2.38;;
44810;SDS011;30526;52.184;4.476;2023-08-21T01:40:24;8.15;;;2.75;;
44810;SDS011;30526;52.184;4.476;2023-08-21T01:42:52;5.60;;;2.50;;
44810;SDS011;30526;52.184;4.476;2023-08-21T01:45:19;11.40;;;2.70;;
44810;SDS011;30526;52.184;4.476;2023-08-21T01:47:45;5.15;;;2.08;;
44810;SDS011;30526;52.184;4.476;2023-08-21T01:50:11;5.47;;;2.00;;
44810;SDS011;30526;52.184;4.476;2023-08-21T01:52:37;6.65;;;2.28;;
44810;SDS011;30526;52.184;4.476;2023-08-21T01:55:03;5.28;;;2.40;;
44810;SDS011;30526;52.184;4.476;2023-08-21T01:57:29;17.80;;;2.42;;
44810;SDS011;30526;52.184;4.476;2023-08-21T01:59:55;6.93;;;1.95;;
44810;SDS011;30526;52.184;4.476;2023-08-21T02:02:21;8.13;;;1.85;;
44810;SDS011;30526;52.184;4.476;2023-08-21T02:04:47;5.20;;;2.10;;
44810;SDS011;30526;52.184;4.476;2023-08-21T02:07:13;2.97;;;1.47;;
44810;SDS011;30526;52.184;4.476;2023-08-21T02:09:39;8.20;;;2.35;;
44810;SDS011;30526;52.184;4.476;2023-08-21T02:12:05;5.15;;;2.13;;
44810;SDS011;30526;52.184;4.476;2023-08-21T02:14:31;6.88;;;1.90;;
44810;SDS011;30526;52.184;4.476;2023-08-21T02:16:57;8.38;;;2.03;;
44810;SDS011;30526;52.184;4.476;2023-08-21T02:19:23;4.75;;;2.05;;
44810;SDS011;30526;52.184;4.476;2023-08-21T02:21:49;11.35;;;2.38;;
44810;SDS011;30526;52.184;4.476;2023-08-21T02:24:15;4.30;;;1.50;;
44810;SDS011;30526;52.184;4.476;2023-08-21T02:26:42;4.35;;;2.10;;
44810;SDS011;30526;52.184;4.476;2023-08-21T02:29:10;5.80;;;1.85;;
44810;SDS011;30526;52.184;4.476;2023-08-21T02:31:36;8.35;;;2.33;;
44810;SDS011;30526;52.184;4.476;2023-08-21T02:34:02;6.45;;;2.15;;
44810;SDS011;30526;52.184;4.476;2023-08-21T02:36:28;5.75;;;2.08;;
44810;SDS011;30526;52.184;4.476;2023-08-21T02:38:55;6.32;;;1.90;;
44810;SDS011;30526;52.184;4.476;2023-08-21T02:41:21;4.85;;;1.90;;
44810;SDS011;30526;52.184;4.476;2023-08-21T02:43:47;8.45;;;1.92;;
44810;SDS011;30526;52.184;4.476;2023-08-21T02:46:13;8.80;;;2.30;;
44810;SDS011;30526;52.184;4.476;2023-08-21T02:48:39;5.55;;;1.75;;
44810;SDS011;30526;52.184;4.476;2023-08-21T02:51:05;6.40;;;2.25;;
44810;SDS011;30526;52.184;4.476;2023-08-21T02:53:31;7.53;;;2.28;;
44810;SDS011;30526;52.184;4.476;2023-08-21T02:55:57;7.05;;;2.13;;
44810;SDS011;30526;52.184;4.476;2023-08-21T02:58:23;7.20;;;2.10;;
44810;SDS011;30526;52.184;4.476;2023-08-21T03:00:49;10.13;;;2.15;;
44810;SDS011;30526;52.184;4.476;2023-08-21T03:03:15;9.35;;;2.60;;
44810;SDS011;30526;52.184;4.476;2023-08-21T03:05:41;8.63;;;2.25;;
44810;SDS011;30526;52.184;4.476;2023-08-21T03:08:08;6.60;;;2.03;;
44810;SDS011;30526;52.184;4.476;2023-08-21T03:10:34;5.22;;;1.70;;
44810;SDS011;30526;52.184;4.476;2023-08-21T03:13:01;8.45;;;2.47;;
44810;SDS011;30526;52.184;4.476;2023-08-21T03:15:28;6.20;;;1.92;;
44810;SDS011;30526;52.184;4.476;2023-08-21T03:17:54;4.30;;;2.28;;
44810;SDS011;30526;52.184;4.476;2023-08-21T03:20:20;5.82;;;1.80;;
44810;SDS011;30526;52.184;4.476;2023-08-21T03:22:46;9.68;;;2.80;;
44810;SDS011;30526;52.184;4.476;2023-08-21T03:25:12;6.55;;;2.00;;
44810;SDS011;30526;52.184;4.476;2023-08-21T03:27:38;3.80;;;2.15;;
44810;SDS011;30526;52.184;4.476;2023-08-21T03:30:07;6.33;;;1.90;;
44810;SDS011;30526;52.184;4.476;2023-08-21T03:32:34;9.90;;;2.47;;
44810;SDS011;30526;52.184;4.476;2023-08-21T03:35:00;7.75;;;2.17;;
44810;SDS011;30526;52.184;4.476;2023-08-21T03:37:26;5.88;;;1.83;;
44810;SDS011;30526;52.184;4.476;2023-08-21T03:39:52;8.27;;;1.95;;
44810;SDS011;30526;52.184;4.476;2023-08-21T03:42:18;4.28;;;2.17;;
44810;SDS011;30526;52.184;4.476;2023-08-21T03:44:44;7.22;;;1.88;;
44810;SDS011;30526;52.184;4.476;2023-08-21T03:47:13;6.97;;;2.30;;
44810;SDS011;30526;52.184;4.476;2023-08-21T03:49:39;10.20;;;2.13;;
44810;SDS011;30526;52.184;4.476;2023-08-21T03:52:05;7.07;;;2.70;;
44810;SDS011;30526;52.184;4.476;2023-08-21T03:54:31;5.70;;;2.15;;
44810;SDS011;30526;52.184;4.476;2023-08-21T03:56:57;9.43;;;2.25;;
44810;SDS011;30526;52.184;4.476;2023-08-21T03:59:23;5.85;;;2.00;;
44810;SDS011;30526;52.184;4.476;2023-08-21T04:01:52;10.05;;;2.42;;
44810;SDS011;30526;52.184;4.476;2023-08-21T04:04:18;6.30;;;2.20;;
44810;SDS011;30526;52.184;4.476;2023-08-21T04:06:44;5.93;;;2.30;;
44810;SDS011;30526;52.184;4.476;2023-08-21T04:09:10;7.63;;;2.47;;
44810;SDS011;30526;52.184;4.476;2023-08-21T04:11:36;8.52;;;2.47;;
44810;SDS011;30526;52.184;4.476;2023-08-21T04:14:03;6.80;;;2.20;;
44810;SDS011;30526;52.184;4.476;2023-08-21T04:16:29;9.40;;;2.63;;
44810;SDS011;30526;52.184;4.476;2023-08-21T04:18:55;12.50;;;2.47;;
44810;SDS011;30526;52.184;4.476;2023-08-21T04:21:21;6.95;;;2.42;;
44810;SDS011;30526;52.184;4.476;2023-08-21T04:23:48;6.50;;;2.50;;
44810;SDS011;30526;52.184;4.476;2023-08-21T04:26:14;11.57;;;2.63;;
44810;SDS011;30526;52.184;4.476;2023-08-21T04:28:40;8.18;;;2.55;;
44810;SDS011;30526;52.184;4.476;2023-08-21T04:31:07;4.22;;;2.00;;
44810;SDS011;30526;52.184;4.476;2023-08-21T04:33:33;6.93;;;2.73;;
44810;SDS011;30526;52.184;4.476;2023-08-21T04:36:00;7.85;;;2.78;;
44810;SDS011;30526;52.184;4.476;2023-08-21T04:38:26;7.78;;;2.92;;
44810;SDS011;30526;52.184;4.476;2023-08-21T04:40:52;11.77;;;2.90;;
44810;SDS011;30526;52.184;4.476;2023-08-21T04:43:18;6.68;;;2.50;;
44810;SDS011;30526;52.184;4.476;2023-08-21T04:45:51;8.25;;;2.88;;
44810;SDS011;30526;52.184;4.476;2023-08-21T04:48:20;6.97;;;2.70;;
44810;SDS011;30526;52.184;4.476;2023-08-21T04:50:46;6.40;;;2.63;;
44810;SDS011;30526;52.184;4.476;2023-08-21T04:53:12;10.60;;;2.60;;
44810;SDS011;30526;52.184;4.476;2023-08-21T04:55:39;11.60;;;2.70;;
44810;SDS011;30526;52.184;4.476;2023-08-21T04:58:09;13.53;;;2.70;;
44810;SDS011;30526;52.184;4.476;2023-08-21T05:00:35;9.45;;;3.58;;
44810;SDS011;30526;52.184;4.476;2023-08-21T05:03:02;5.18;;;2.80;;
44810;SDS011;30526;52.184;4.476;2023-08-21T05:05:28;6.32;;;2.35;;
44810;SDS011;30526;52.184;4.476;2023-08-21T05:07:54;7.40;;;3.20;;
44810;SDS011;30526;52.184;4.476;2023-08-21T05:10:20;11.93;;;2.92;;
44810;SDS011;30526;52.184;4.476;2023-08-21T05:12:46;8.95;;;2.80;;
44810;SDS011;30526;52.184;4.476;2023-08-21T05:15:12;7.18;;;2.83;;
44810;SDS011;30526;52.184;4.476;2023-08-21T05:17:39;5.18;;;2.35;;
44810;SDS011;30526;52.184;4.476;2023-08-21T05:20:05;7.00;;;2.67;;
44810;SDS011;30526;52.184;4.476;2023-08-21T05:22:31;7.50;;;3.33;;
44810;SDS011;30526;52.184;4.476;2023-08-21T05:24:57;9.85;;;3.13;;
44810;SDS011;30526;52.184;4.476;2023-08-21T05:27:23;13.38;;;3.45;;
44810;SDS011;30526;52.184;4.476;2023-08-21T05:29:49;12.45;;;3.42;;
44810;SDS011;30526;52.184;4.476;2023-08-21T05:32:16;7.13;;;2.83;;
44810;SDS011;30526;52.184;4.476;2023-08-21T05:34:42;10.85;;;3.25;;
44810;SDS011;30526;52.184;4.476;2023-08-21T05:37:08;7.68;;;3.20;;
44810;SDS011;30526;52.184;4.476;2023-08-21T05:39:34;9.38;;;3.90;;
44810;SDS011;30526;52.184;4.476;2023-08-21T05:42:00;17.60;;;4.00;;
44810;SDS011;30526;52.184;4.476;2023-08-21T05:44:26;10.27;;;3.25;;
44810;SDS011;30526;52.184;4.476;2023-08-21T05:46:53;7.78;;;3.05;;
44810;SDS011;30526;52.184;4.476;2023-08-21T05:49:19;6.63;;;2.63;;
44810;SDS011;30526;52.184;4.476;2023-08-21T05:51:45;14.65;;;3.10;;
44810;SDS011;30526;52.184;4.476;2023-08-21T05:54:11;9.05;;;3.10;;
44810;SDS011;30526;52.184;4.476;2023-08-21T05:56:37;9.27;;;3.13;;
44810;SDS011;30526;52.184;4.476;2023-08-21T05:59:03;10.20;;;3.40;;
44810;SDS011;30526;52.184;4.476;2023-08-21T06:01:29;9.88;;;3.28;;
44810;SDS011;30526;52.184;4.476;2023-08-21T06:03:55;10.73;;;3.28;;
44810;SDS011;30526;52.184;4.476;2023-08-21T06:06:21;11.60;;;3.28;;
44810;SDS011;30526;52.184;4.476;2023-08-21T06:08:47;9.30;;;3.10;;
44810;SDS011;30526;52.184;4.476;2023-08-21T06:11:13;12.18;;;3.33;;
44810;SDS011;30526;52.184;4.476;2023-08-21T06:13:40;12.60;;;3.88;;
44810;SDS011;30526;52.184;4.476;2023-08-21T06:16:06;8.02;;;3.50;;
44810;SDS011;30526;52.184;4.476;2023-08-21T06:18:32;8.55;;;3.53;;
44810;SDS011;30526;52.184;4.476;2023-08-21T06:20:58;17.27;;;3.65;;
44810;SDS011;30526;52.184;4.476;2023-08-21T06:23:24;9.00;;;3.75;;
44810;SDS011;30526;52.184;4.476;2023-08-21T06:25:50;15.73;;;3.97;;
44810;SDS011;30526;52.184;4.476;2023-08-21T06:28:16;10.82;;;3.95;;
44810;SDS011;30526;52.184;4.476;2023-08-21T06:30:42;15.20;;;3.90;;
44810;SDS011;30526;52.184;4.476;2023-08-21T06:33:08;14.93;;;4.28;;
44810;SDS011;30526;52.184;4.476;2023-08-21T06:35:37;11.38;;;4.45;;
44810;SDS011;30526;52.184;4.476;2023-08-21T06:38:03;15.55;;;4.57;;
44810;SDS011;30526;52.184;4.476;2023-08-21T06:40:30;13.90;;;4.37;;
44810;SDS011;30526;52.184;4.476;2023-08-21T06:42:56;11.52;;;4.78;;
44810;SDS011;30526;52.184;4.476;2023-08-21T06:45:22;11.18;;;4.00;;
44810;SDS011;30526;52.184;4.476;2023-08-21T06:47:48;16.83;;;5.00;;
44810;SDS011;30526;52.184;4.476;2023-08-21T06:50:15;14.57;;;4.53;;
44810;SDS011;30526;52.184;4.476;2023-08-21T06:52:41;21.67;;;5.05;;
44810;SDS011;30526;52.184;4.476;2023-08-21T06:55:08;16.55;;;4.78;;
44810;SDS011;30526;52.184;4.476;2023-08-21T06:57:34;17.13;;;4.72;;
44810;SDS011;30526;52.184;4.476;2023-08-21T07:00:02;13.15;;;4.35;;
44810;SDS011;30526;52.184;4.476;2023-08-21T07:02:29;9.32;;;3.45;;
44810;SDS011;30526;52.184;4.476;2023-08-21T07:04:55;14.18;;;4.80;;
44810;SDS011;30526;52.184;4.476;2023-08-21T07:07:21;18.95;;;4.28;;
44810;SDS011;30526;52.184;4.476;2023-08-21T07:09:47;19.85;;;4.95;;
44810;SDS011;30526;52.184;4.476;2023-08-21T07:12:13;13.45;;;4.10;;
44810;SDS011;30526;52.184;4.476;2023-08-21T07:14:39;14.75;;;3.63;;
44810;SDS011;30526;52.184;4.476;2023-08-21T07:17:05;12.65;;;3.50;;
44810;SDS011;30526;52.184;4.476;2023-08-21T07:19:31;12.48;;;3.10;;
44810;SDS011;30526;52.184;4.476;2023-08-21T07:21:57;17.52;;;4.22;;
44810;SDS011;30526;52.184;4.476;2023-08-21T07:24:23;11.95;;;3.70;;
44810;SDS011;30526;52.184;4.476;2023-08-21T07:26:49;25.92;;;3.67;;
44810;SDS011;30526;52.184;4.476;2023-08-21T07:29:15;17.80;;;3.72;;
44810;SDS011;30526;52.184;4.476;2023-08-21T07:31:41;14.20;;;3.42;;
44810;SDS011;30526;52.184;4.476;2023-08-21T07:34:07;12.95;;;2.75;;
44810;SDS011;30526;52.184;4.476;2023-08-21T07:36:33;10.40;;;3.30;;
44810;SDS011;30526;52.184;4.476;2023-08-21T07:38:59;9.02;;;3.30;;
44810;SDS011;30526;52.184;4.476;2023-08-21T07:41:25;12.90;;;2.92;;
44810;SDS011;30526;52.184;4.476;2023-08-21T07:43:51;11.77;;;3.08;;
44810;SDS011;30526;52.184;4.476;2023-08-21T07:46:17;8.68;;;3.53;;
44810;SDS011;30526;52.184;4.476;2023-08-21T07:48:44;14.48;;;3.13;;
44810;SDS011;30526;52.184;4.476;2023-08-21T07:51:10;10.63;;;3.28;;
44810;SDS011;30526;52.184;4.476;2023-08-21T07:53:36;10.32;;;3.17;;
44810;SDS011;30526;52.184;4.476;2023-08-21T07:56:03;11.43;;;2.60;;
44810;SDS011;30526;52.184;4.476;2023-08-21T07:58:29;7.60;;;2.25;;
44810;SDS011;30526;52.184;4.476;2023-08-21T08:00:55;13.47;;;2.73;;
44810;SDS011;30526;52.184;4.476;2023-08-21T08:03:21;10.00;;;2.50;;
44810;SDS011;30526;52.184;4.476;2023-08-21T08:05:47;12.00;;;2.80;;
44810;SDS011;30526;52.184;4.476;2023-08-21T08:08:17;6.10;;;2.40;;
44810;SDS011;30526;52.184;4.476;2023-08-21T08:10:43;12.10;;;2.22;;
44810;SDS011;30526;52.184;4.476;2023-08-21T08:13:09;6.72;;;2.25;;
44810;SDS011;30526;52.184;4.476;2023-08-21T08:15:35;8.23;;;2.45;;
44810;SDS011;30526;52.184;4.476;2023-08-21T08:18:02;9.95;;;2.63;;
44810;SDS011;30526;52.184;4.476;2023-08-21T08:20:28;8.65;;;1.98;;
44810;SDS011;30526;52.184;4.476;2023-08-21T08:22:54;12.93;;;2.03;;
44810;SDS011;30526;52.184;4.476;2023-08-21T08:25:21;6.25;;;1.80;;
44810;SDS011;30526;52.184;4.476;2023-08-21T08:27:47;15.98;;;2.20;;
44810;SDS011;30526;52.184;4.476;2023-08-21T08:30:13;8.45;;;2.20;;
44810;SDS011;30526;52.184;4.476;2023-08-21T08:32:40;7.13;;;1.60;;
44810;SDS011;30526;52.184;4.476;2023-08-21T08:35:10;6.55;;;2.28;;
44810;SDS011;30526;52.184;4.476;2023-08-21T08:37:36;7.50;;;2.28;;
44810;SDS011;30526;52.184;4.476;2023-08-21T08:40:02;10.10;;;2.28;;
44810;SDS011;30526;52.184;4.476;2023-08-21T08:42:28;6.85;;;2.05;;
44810;SDS011;30526;52.184;4.476;2023-08-21T08:44:54;10.93;;;1.90;;
44810;SDS011;30526;52.184;4.476;2023-08-21T08:47:21;9.32;;;1.73;;
44810;SDS011;30526;52.184;4.476;2023-08-21T08:49:48;8.88;;;1.58;;
44810;SDS011;30526;52.184;4.476;2023-08-21T08:52:14;6.82;;;1.75;;
44810;SDS011;30526;52.184;4.476;2023-08-21T08:54:42;9.82;;;2.20;;
44810;SDS011;30526;52.184;4.476;2023-08-21T08:57:09;8.20;;;1.60;;
44810;SDS011;30526;52.184;4.476;2023-08-21T08:59:35;4.80;;;1.85;;
44810;SDS011;30526;52.184;4.476;2023-08-21T09:02:01;8.45;;;1.80;;
44810;SDS011;30526;52.184;4.476;2023-08-21T09:04:27;7.30;;;1.95;;
44810;SDS011;30526;52.184;4.476;2023-08-21T09:07:05;8.93;;;1.50;;
44810;SDS011;30526;52.184;4.476;2023-08-21T09:09:37;7.57;;;1.60;;
44810;SDS011;30526;52.184;4.476;2023-08-21T09:12:06;6.35;;;1.50;;
44810;SDS011;30526;52.184;4.476;2023-08-21T09:14:33;4.50;;;1.80;;
44810;SDS011;30526;52.184;4.476;2023-08-21T09:16:59;10.38;;;1.73;;
44810;SDS011;30526;52.184;4.476;2023-08-21T09:19:29;8.82;;;1.60;;
44810;SDS011;30526;52.184;4.476;2023-08-21T09:21:55;6.43;;;1.48;;
44810;SDS011;30526;52.184;4.476;2023-08-21T09:24:21;8.48;;;1.63;;
44810;SDS011;30526;52.184;4.476;2023-08-21T09:26:48;7.93;;;1.80;;
44810;SDS011;30526;52.184;4.476;2023-08-21T09:29:14;9.30;;;1.83;;
44810;SDS011;30526;52.184;4.476;2023-08-21T09:31:40;6.45;;;1.50;;
44810;SDS011;30526;52.184;4.476;2023-08-21T09:34:08;7.53;;;1.52;;
44810;SDS011;30526;52.184;4.476;2023-08-21T09:36:34;7.45;;;1.60;;
44810;SDS011;30526;52.184;4.476;2023-08-21T09:39:01;8.85;;;1.50;;
44810;SDS011;30526;52.184;4.476;2023-08-21T09:41:28;5.65;;;1.60;;
44810;SDS011;30526;52.184;4.476;2023-08-21T09:44:00;6.68;;;1.58;;
44810;SDS011;30526;52.184;4.476;2023-08-21T09:46:29;4.15;;;1.30;;
44810;SDS011;30526;52.184;4.476;2023-08-21T09:48:55;6.93;;;1.58;;
44810;SDS011;30526;52.184;4.476;2023-08-21T09:51:21;7.47;;;1.33;;
44810;SDS011;30526;52.184;4.476;2023-08-21T09:53:48;3.58;;;1.50;;
44810;SDS011;30526;52.184;4.476;2023-08-21T09:58:40;6.47;;;1.63;;
44810;SDS011;30526;52.184;4.476;2023-08-21T10:01:07;6.60;;;1.42;;
44810;SDS011;30526;52.184;4.476;2023-08-21T10:03:39;5.57;;;1.65;;
44810;SDS011;30526;52.184;4.476;2023-08-21T10:06:05;5.95;;;1.65;;
44810;SDS011;30526;52.184;4.476;2023-08-21T10:08:31;6.73;;;1.30;;
44810;SDS011;30526;52.184;4.476;2023-08-21T10:11:04;3.75;;;1.23;;
44810;SDS011;30526;52.184;4.476;2023-08-21T10:13:31;5.90;;;1.40;;
44810;SDS011;30526;52.184;4.476;2023-08-21T10:15:58;12.00;;;1.58;;
44810;SDS011;30526;52.184;4.476;2023-08-21T10:18:25;4.75;;;1.20;;
44810;SDS011;30526;52.184;4.476;2023-08-21T10:20:54;3.08;;;1.10;;
44810;SDS011;30526;52.184;4.476;2023-08-21T10:23:24;5.90;;;1.15;;
44810;SDS011;30526;52.184;4.476;2023-08-21T10:25:56;1.95;;;1.15;;
44810;SDS011;30526;52.184;4.476;2023-08-21T10:28:23;5.72;;;1.20;;
44810;SDS011;30526;52.184;4.476;2023-08-21T10:30:49;3.95;;;1.55;;
44810;SDS011;30526;52.184;4.476;2023-08-21T10:33:15;2.40;;;1.10;;
44810;SDS011;30526;52.184;4.476;2023-08-21T10:35:41;6.77;;;1.30;;
44810;SDS011;30526;52.184;4.476;2023-08-21T10:38:07;3.72;;;1.40;;
44810;SDS011;30526;52.184;4.476;2023-08-21T10:40:35;2.70;;;1.20;;
44810;SDS011;30526;52.184;4.476;2023-08-21T10:43:01;1.98;;;0.90;;
44810;SDS011;30526;52.184;4.476;2023-08-21T10:45:30;3.65;;;1.20;;
44810;SDS011;30526;52.184;4.476;2023-08-21T10:47:56;6.90;;;1.35;;
44810;SDS011;30526;52.184;4.476;2023-08-21T10:50:23;3.97;;;1.33;;
44810;SDS011;30526;52.184;4.476;2023-08-21T10:52:49;5.85;;;1.13;;
44810;SDS011;30526;52.184;4.476;2023-08-21T10:55:17;3.10;;;1.30;;
44810;SDS011;30526;52.184;4.476;2023-08-21T10:57:45;4.68;;;1.35;;
44810;SDS011;30526;52.184;4.476;2023-08-21T11:00:12;4.22;;;1.30;;
44810;SDS011;30526;52.184;4.476;2023-08-21T11:02:42;6.20;;;1.55;;
44810;SDS011;30526;52.184;4.476;2023-08-21T11:05:09;5.28;;;1.30;;
44810;SDS011;30526;52.184;4.476;2023-08-21T11:07:39;6.47;;;1.40;;
44810;SDS011;30526;52.184;4.476;2023-08-21T11:10:09;6.25;;;0.98;;
44810;SDS011;30526;52.184;4.476;2023-08-21T11:12:36;4.15;;;1.17;;
44810;SDS011;30526;52.184;4.476;2023-08-21T11:15:02;7.65;;;1.23;;
44810;SDS011;30526;52.184;4.476;2023-08-21T11:17:29;2.60;;;1.13;;
44810;SDS011;30526;52.184;4.476;2023-08-21T11:19:55;5.03;;;1.10;;
44810;SDS011;30526;52.184;4.476;2023-08-21T11:22:27;5.13;;;0.93;;
44810;SDS011;30526;52.184;4.476;2023-08-21T11:24:54;6.88;;;1.10;;
44810;SDS011;30526;52.184;4.476;2023-08-21T11:27:20;5.25;;;1.27;;
44810;SDS011;30526;52.184;4.476;2023-08-21T11:29:50;4.47;;;1.40;;
44810;SDS011;30526;52.184;4.476;2023-08-21T11:32:20;8.73;;;1.50;;
44810;SDS011;30526;52.184;4.476;2023-08-21T11:34:56;5.50;;;1.42;;
44810;SDS011;30526;52.184;4.476;2023-08-21T11:37:23;8.70;;;1.73;;
44810;SDS011;30526;52.184;4.476;2023-08-21T11:39:53;6.05;;;1.33;;
44810;SDS011;30526;52.184;4.476;2023-08-21T11:42:20;8.65;;;1.48;;
44810;SDS011;30526;52.184;4.476;2023-08-21T11:44:48;4.35;;;1.13;;
44810;SDS011;30526;52.184;4.476;2023-08-21T11:47:16;2.50;;;0.90;;
44810;SDS011;30526;52.184;4.476;2023-08-21T11:49:43;3.72;;;1.42;;
44810;SDS011;30526;52.184;4.476;2023-08-21T11:52:10;4.13;;;1.20;;
44810;SDS011;30526;52.184;4.476;2023-08-21T11:54:37;5.95;;;1.80;;
44810;SDS011;30526;52.184;4.476;2023-08-21T11:59:29;5.32;;;1.73;;
44810;SDS011;30526;52.184;4.476;2023-08-21T12:01:55;4.10;;;1.55;;
44810;SDS011;30526;52.184;4.476;2023-08-21T12:04:22;2.37;;;1.27;;
44810;SDS011;30526;52.184;4.476;2023-08-21T12:06:48;2.70;;;1.15;;
44810;SDS011;30526;52.184;4.476;2023-08-21T12:09:14;7.03;;;1.77;;
44810;SDS011;30526;52.184;4.476;2023-08-21T12:11:40;4.10;;;1.20;;
44810;SDS011;30526;52.184;4.476;2023-08-21T12:14:07;4.70;;;1.20;;
44810;SDS011;30526;52.184;4.476;2023-08-21T12:16:33;3.15;;;1.40;;
44810;SDS011;30526;52.184;4.476;2023-08-21T12:19:00;3.58;;;1.55;;
44810;SDS011;30526;52.184;4.476;2023-08-21T12:21:28;4.93;;;1.50;;
44810;SDS011;30526;52.184;4.476;2023-08-21T12:23:54;1.92;;;1.08;;
44810;SDS011;30526;52.184;4.476;2023-08-21T12:26:20;2.47;;;1.00;;
44810;SDS011;30526;52.184;4.476;2023-08-21T12:28:47;3.10;;;1.40;;
44810;SDS011;30526;52.184;4.476;2023-08-21T12:31:14;3.67;;;1.40;;
44810;SDS011;30526;52.184;4.476;2023-08-21T12:33:40;4.82;;;0.90;;
44810;SDS011;30526;52.184;4.476;2023-08-21T12:38:33;2.45;;;1.00;;
44810;SDS011;30526;52.184;4.476;2023-08-21T12:41:01;5.68;;;1.20;;
44810;SDS011;30526;52.184;4.476;2023-08-21T12:43:27;3.00;;;1.10;;
44810;SDS011;30526;52.184;4.476;2023-08-21T12:45:53;3.88;;;1.10;;
44810;SDS011;30526;52.184;4.476;2023-08-21T12:50:45;4.10;;;1.20;;
44810;SDS011;30526;52.184;4.476;2023-08-21T12:53:11;5.53;;;1.40;;
44810;SDS011;30526;52.184;4.476;2023-08-21T12:58:03;2.92;;;1.08;;
44810;SDS011;30526;52.184;4.476;2023-08-21T13:00:29;4.82;;;1.48;;
44810;SDS011;30526;52.184;4.476;2023-08-21T13:02:57;4.60;;;1.13;;
44810;SDS011;30526;52.184;4.476;2023-08-21T13:07:49;4.28;;;1.20;;
44810;SDS011;30526;52.184;4.476;2023-08-21T13:12:41;2.72;;;1.30;;
44810;SDS011;30526;52.184;4.476;2023-08-21T13:17:33;2.38;;;1.08;;
44810;SDS011;30526;52.184;4.476;2023-08-21T13:19:59;4.38;;;1.52;;
44810;SDS011;30526;52.184;4.476;2023-08-21T13:24:51;5.95;;;1.63;;
44810;SDS011;30526;52.184;4.476;2023-08-21T13:27:17;5.72;;;1.80;;
44810;SDS011;30526;52.184;4.476;2023-08-21T13:32:09;3.55;;;1.40;;
44810;SDS011;30526;52.184;4.476;2023-08-21T13:34:35;5.18;;;1.50;;
44810;SDS011;30526;52.184;4.476;2023-08-21T13:39:29;3.90;;;1.88;;
44810;SDS011;30526;52.184;4.476;2023-08-21T13:41:55;3.90;;;1.50;;
44810;SDS011;30526;52.184;4.476;2023-08-21T13:44:27;3.60;;;1.58;;
44810;SDS011;30526;52.184;4.476;2023-08-21T13:46:59;8.60;;;2.22;;
44810;SDS011;30526;52.184;4.476;2023-08-21T13:49:25;13.35;;;2.60;;
44810;SDS011;30526;52.184;4.476;2023-08-21T13:51:54;5.43;;;1.90;;
44810;SDS011;30526;52.184;4.476;2023-08-21T13:54:26;6.18;;;1.55;;
44810;SDS011;30526;52.184;4.476;2023-08-21T13:56:58;3.83;;;1.70;;
44810;SDS011;30526;52.184;4.476;2023-08-21T13:59:25;2.85;;;1.75;;
44810;SDS011;30526;52.184;4.476;2023-08-21T14:01:51;4.90;;;1.52;;
44810;SDS011;30526;52.184;4.476;2023-08-21T14:04:18;7.45;;;1.70;;
44810;SDS011;30526;52.184;4.476;2023-08-21T14:06:44;3.63;;;1.63;;
44810;SDS011;30526;52.184;4.476;2023-08-21T14:09:11;3.88;;;1.77;;
44810;SDS011;30526;52.184;4.476;2023-08-21T14:11:38;5.88;;;1.50;;
44810;SDS011;30526;52.184;4.476;2023-08-21T14:14:06;8.10;;;1.80;;
44810;SDS011;30526;52.184;4.476;2023-08-21T14:16:33;5.85;;;1.98;;
44810;SDS011;30526;52.184;4.476;2023-08-21T14:18:59;2.40;;;1.27;;
44810;SDS011;30526;52.184;4.476;2023-08-21T14:21:25;2.90;;;1.33;;
44810;SDS011;30526;52.184;4.476;2023-08-21T14:23:52;5.50;;;1.60;;
44810;SDS011;30526;52.184;4.476;2023-08-21T14:26:18;4.25;;;1.73;;
44810;SDS011;30526;52.184;4.476;2023-08-21T14:28:45;5.20;;;1.77;;
44810;SDS011;30526;52.184;4.476;2023-08-21T14:31:18;4.43;;;1.50;;
44810;SDS011;30526;52.184;4.476;2023-08-21T14:36:50;4.15;;;1.50;;
44810;SDS011;30526;52.184;4.476;2023-08-21T14:39:16;5.25;;;1.52;;
44810;SDS011;30526;52.184;4.476;2023-08-21T14:44:44;3.67;;;1.58;;
44810;SDS011;30526;52.184;4.476;2023-08-21T14:47:10;2.75;;;1.70;;
44810;SDS011;30526;52.184;4.476;2023-08-21T14:49:36;2.65;;;1.38;;
44810;SDS011;30526;52.184;4.476;2023-08-21T14:52:03;5.28;;;1.67;;
44810;SDS011;30526;52.184;4.476;2023-08-21T14:54:29;5.13;;;1.60;;
44810;SDS011;30526;52.184;4.476;2023-08-21T14:56:56;3.63;;;1.50;;
44810;SDS011;30526;52.184;4.476;2023-08-21T14:59:22;2.63;;;1.55;;
44810;SDS011;30526;52.184;4.476;2023-08-21T15:01:48;5.28;;;1.58;;
44810;SDS011;30526;52.184;4.476;2023-08-21T15:04:14;5.03;;;1.80;;
44810;SDS011;30526;52.184;4.476;2023-08-21T15:06:40;3.72;;;1.50;;
44810;SDS011;30526;52.184;4.476;2023-08-21T15:09:07;4.47;;;1.67;;
44810;SDS011;30526;52.184;4.476;2023-08-21T15:11:34;4.13;;;1.75;;
44810;SDS011;30526;52.184;4.476;2023-08-21T15:14:01;1.88;;;1.20;;
44810;SDS011;30526;52.184;4.476;2023-08-21T15:16:27;5.60;;;1.63;;
44810;SDS011;30526;52.184;4.476;2023-08-21T15:18:54;5.20;;;1.40;;
44810;SDS011;30526;52.184;4.476;2023-08-21T15:21:21;3.10;;;1.65;;